Time;durP1;ratioP1;P1;durP2;ratioP2;P2;SDS_P1;SDS_P2;PMS_P1;PMS_P2;Temp;Humidity;BMP_temperature;BMP_pressure;BME280_temperature;BME280_humidity;BME280_pressure;Samples;Min_cycle;Max_cycle;Signal;HPM_P1;HPM_P2
2023/07/04 00:01:21;;;;;;;10.70;2.60;;;;;;;;;;4983902;28;20220;-65
2023/07/04 00:03:51;;;;;;;7.70;2.10;;;;;;;;;;4983996;28;20267;-64
2023/07/04 00:06:18;;;;;;;10.23;2.60;;;;;;;;;;4984351;28;20216;-64
2023/07/04 00:08:46;;;;;;;8.63;2.40;;;;;;;;;;4983491;28;20204;-64
2023/07/04 00:11:13;;;;;;;9.03;2.73;;;;;;;;;;4986866;28;20211;-65
2023/07/04 00:13:40;;;;;;;7.27;2.60;;;;;;;;;;4987183;28;20232;-64
2023/07/04 00:16:10;;;;;;;7.57;2.57;;;;;;;;;;4983559;28;20906;-64
2023/07/04 00:18:37;;;;;;;12.50;3.63;;;;;;;;;;4986151;28;20227;-64
2023/07/04 00:21:06;;;;;;;8.63;2.73;;;;;;;;;;4984261;28;20299;-64
2023/07/04 00:23:34;;;;;;;8.57;2.63;;;;;;;;;;4985007;28;20334;-64
2023/07/04 00:26:02;;;;;;;9.00;2.50;;;;;;;;;;4985667;28;20311;-64
2023/07/04 00:28:29;;;;;;;8.63;2.53;;;;;;;;;;4985356;28;20269;-65
2023/07/04 00:30:56;;;;;;;9.00;2.50;;;;;;;;;;4984651;28;20215;-64
2023/07/04 00:33:25;;;;;;;4.73;2.40;;;;;;;;;;4983170;28;20286;-65
2023/07/04 00:36:00;;;;;;;10.23;2.57;;;;;;;;;;4986392;28;20696;-65
2023/07/04 00:38:27;;;;;;;8.57;2.83;;;;;;;;;;4974599;28;20719;-64
2023/07/04 00:40:54;;;;;;;8.00;2.90;;;;;;;;;;4974135;28;20220;-65
2023/07/04 00:43:22;;;;;;;13.37;3.17;;;;;;;;;;4980042;28;20662;-64
2023/07/04 00:45:56;;;;;;;9.27;2.67;;;;;;;;;;4986951;28;20246;-64
2023/07/04 00:48:26;;;;;;;13.20;3.17;;;;;;;;;;4987583;28;20204;-64
2023/07/04 00:51:03;;;;;;;8.77;2.83;;;;;;;;;;4984826;28;20281;-64
2023/07/04 00:53:30;;;;;;;10.40;2.87;;;;;;;;;;4979966;28;20231;-64
2023/07/04 00:55:58;;;;;;;9.13;2.77;;;;;;;;;;4983948;28;20218;-64
2023/07/04 00:58:25;;;;;;;10.50;2.60;;;;;;;;;;4984960;28;20235;-63
2023/07/04 01:00:52;;;;;;;8.63;2.60;;;;;;;;;;4988325;28;20266;-64
2023/07/04 01:03:20;;;;;;;12.83;3.37;;;;;;;;;;4985969;28;20582;-64
2023/07/04 01:05:54;;;;;;;8.63;2.97;;;;;;;;;;4983519;28;20216;-64
2023/07/04 01:08:26;;;;;;;9.17;3.10;;;;;;;;;;4982683;28;20212;-64
2023/07/04 01:10:54;;;;;;;9.73;2.43;;;;;;;;;;4987173;28;20241;-64
2023/07/04 01:13:33;;;;;;;12.23;3.37;;;;;;;;;;4981765;28;20758;-64
2023/07/04 01:16:01;;;;;;;8.10;2.63;;;;;;;;;;4985686;28;20204;-64
2023/07/04 01:18:28;;;;;;;8.40;3.07;;;;;;;;;;4984460;28;20325;-62
2023/07/04 01:20:57;;;;;;;10.03;2.93;;;;;;;;;;4983420;28;20567;-62
2023/07/04 01:23:28;;;;;;;9.67;2.73;;;;;;;;;;4983246;28;20303;-64
2023/07/04 01:25:58;;;;;;;13.00;3.20;;;;;;;;;;4981956;28;20219;-63
2023/07/04 01:28:29;;;;;;;12.47;2.73;;;;;;;;;;4981448;28;20229;-64
2023/07/04 01:30:56;;;;;;;10.90;3.13;;;;;;;;;;4985110;28;20278;-64
2023/07/04 01:33:25;;;;;;;11.37;3.27;;;;;;;;;;4983383;28;20238;-64
2023/07/04 01:35:52;;;;;;;10.60;3.00;;;;;;;;;;4984508;28;20566;-64
2023/07/04 01:38:20;;;;;;;12.80;3.00;;;;;;;;;;4984818;28;20204;-64
2023/07/04 01:40:47;;;;;;;10.23;2.50;;;;;;;;;;4981807;28;20215;-64
2023/07/04 01:43:14;;;;;;;9.03;3.03;;;;;;;;;;4982024;28;20334;-64
2023/07/04 01:45:45;;;;;;;10.87;3.47;;;;;;;;;;4984603;28;20338;-64
2023/07/04 01:48:12;;;;;;;11.50;2.80;;;;;;;;;;4984721;28;20211;-64
2023/07/04 01:50:39;;;;;;;10.40;3.13;;;;;;;;;;4983180;28;20214;-65
2023/07/04 01:53:06;;;;;;;11.20;3.27;;;;;;;;;;4981714;28;20278;-64
2023/07/04 01:55:33;;;;;;;8.03;2.67;;;;;;;;;;4983416;28;20212;-65
2023/07/04 01:58:00;;;;;;;8.60;2.83;;;;;;;;;;4980530;28;20729;-63
2023/07/04 02:00:27;;;;;;;8.37;2.80;;;;;;;;;;4985625;28;20231;-64
2023/07/04 02:02:56;;;;;;;8.73;3.37;;;;;;;;;;4987570;28;20286;-64
2023/07/04 02:05:23;;;;;;;13.03;3.00;;;;;;;;;;4982038;28;20223;-64
2023/07/04 02:07:50;;;;;;;10.50;3.47;;;;;;;;;;4984050;28;20219;-65
2023/07/04 02:10:17;;;;;;;12.27;3.67;;;;;;;;;;4983940;28;20215;-64
2023/07/04 02:12:44;;;;;;;11.73;3.20;;;;;;;;;;4982302;28;20239;-65
2023/07/04 02:15:11;;;;;;;15.03;3.63;;;;;;;;;;4983168;28;20207;-65
2023/07/04 02:17:38;;;;;;;10.20;3.00;;;;;;;;;;4988947;28;20260;-65
2023/07/04 02:20:08;;;;;;;12.17;3.30;;;;;;;;;;4980506;28;20362;-64
2023/07/04 02:22:35;;;;;;;12.70;3.17;;;;;;;;;;4984551;28;20230;-64
2023/07/04 02:25:03;;;;;;;17.13;3.87;;;;;;;;;;4982581;28;20611;-62
2023/07/04 02:27:30;;;;;;;10.77;3.20;;;;;;;;;;4981367;28;20224;-64
2023/07/04 02:29:57;;;;;;;13.93;3.10;;;;;;;;;;4983235;28;20218;-63
2023/07/04 02:32:24;;;;;;;12.10;2.97;;;;;;;;;;4982579;28;20706;-63
2023/07/04 02:34:51;;;;;;;11.63;3.13;;;;;;;;;;4983343;28;20260;-63
2023/07/04 02:37:19;;;;;;;10.50;3.00;;;;;;;;;;4980210;28;20211;-63
2023/07/04 02:39:46;;;;;;;12.67;3.37;;;;;;;;;;4983395;28;20711;-64
2023/07/04 02:42:13;;;;;;;12.43;3.33;;;;;;;;;;4986123;28;20235;-64
2023/07/04 02:44:40;;;;;;;9.70;3.17;;;;;;;;;;4989156;28;20265;-63
2023/07/04 02:47:08;;;;;;;12.80;3.40;;;;;;;;;;4983140;28;20284;-63
2023/07/04 02:49:37;;;;;;;9.20;3.33;;;;;;;;;;4993111;28;20226;-64
2023/07/04 02:52:05;;;;;;;10.23;3.10;;;;;;;;;;4991832;28;20231;-64
2023/07/04 02:54:33;;;;;;;8.77;3.00;;;;;;;;;;4985184;28;20260;-64
2023/07/04 02:57:00;;;;;;;14.17;3.43;;;;;;;;;;4983795;28;20564;-64
2023/07/04 02:59:27;;;;;;;19.50;4.13;;;;;;;;;;4981918;28;20267;-63
2023/07/04 03:01:54;;;;;;;7.70;2.73;;;;;;;;;;4979145;28;20266;-64
2023/07/04 03:04:21;;;;;;;6.67;2.67;;;;;;;;;;4980995;28;20620;-64
2023/07/04 03:06:48;;;;;;;11.67;3.77;;;;;;;;;;4981872;28;20216;-64
2023/07/04 03:09:15;;;;;;;7.20;3.30;;;;;;;;;;4982830;28;20596;-65
2023/07/04 03:11:44;;;;;;;12.73;3.30;;;;;;;;;;4979348;28;20270;-64
2023/07/04 03:14:11;;;;;;;13.70;3.90;;;;;;;;;;4983099;28;20271;-64
2023/07/04 03:16:37;;;;;;;17.70;4.10;;;;;;;;;;4985768;28;20618;-64
2023/07/04 03:19:04;;;;;;;15.57;4.07;;;;;;;;;;4984519;28;20236;-64
2023/07/04 03:21:32;;;;;;;16.20;3.20;;;;;;;;;;4980599;28;20277;-64
2023/07/04 03:23:59;;;;;;;9.20;3.47;;;;;;;;;;4981821;28;20213;-64
2023/07/04 03:26:26;;;;;;;12.30;3.57;;;;;;;;;;4980493;28;20267;-64
2023/07/04 03:28:54;;;;;;;13.80;3.83;;;;;;;;;;4981310;28;20278;-64
2023/07/04 03:31:21;;;;;;;12.67;3.60;;;;;;;;;;4980573;28;20223;-64
2023/07/04 03:33:49;;;;;;;8.73;3.83;;;;;;;;;;4981363;28;20240;-65
2023/07/04 03:36:16;;;;;;;11.00;3.67;;;;;;;;;;4981470;28;20273;-65
2023/07/04 03:38:43;;;;;;;10.87;3.47;;;;;;;;;;4983396;28;20267;-64
2023/07/04 03:41:10;;;;;;;10.00;3.07;;;;;;;;;;4981609;28;20634;-64
2023/07/04 03:43:37;;;;;;;8.03;3.17;;;;;;;;;;4981412;28;20239;-65
2023/07/04 03:46:06;;;;;;;11.17;3.90;;;;;;;;;;4989022;28;20261;-64
2023/07/04 03:48:33;;;;;;;13.90;3.40;;;;;;;;;;4985323;28;20217;-64
2023/07/04 03:51:01;;;;;;;11.97;3.30;;;;;;;;;;4986470;28;20214;-64
2023/07/04 03:53:28;;;;;;;12.10;3.50;;;;;;;;;;4984456;28;20227;-64
2023/07/04 03:55:55;;;;;;;13.53;3.67;;;;;;;;;;4982866;28;20272;-64
2023/07/04 03:58:23;;;;;;;14.27;3.87;;;;;;;;;;4987358;28;20208;-64
2023/07/04 04:00:51;;;;;;;12.13;3.67;;;;;;;;;;4984633;28;20235;-64
2023/07/04 04:03:19;;;;;;;13.33;3.77;;;;;;;;;;4983926;28;20241;-64
2023/07/04 04:05:46;;;;;;;14.40;4.22;;;;;;;;;;4982923;28;20489;-64
2023/07/04 04:08:13;;;;;;;20.00;4.28;;;;;;;;;;4983028;28;20419;-65
2023/07/04 04:10:41;;;;;;;16.52;4.40;;;;;;;;;;4984090;28;20474;-65
2023/07/04 04:13:08;;;;;;;16.08;4.40;;;;;;;;;;4985269;28;20430;-64
2023/07/04 04:15:35;;;;;;;14.73;4.30;;;;;;;;;;4981303;28;20888;-65
2023/07/04 04:18:02;;;;;;;15.82;4.30;;;;;;;;;;4984453;28;20426;-64
2023/07/04 04:20:30;;;;;;;14.70;3.72;;;;;;;;;;4982955;28;20428;-64
2023/07/04 04:22:58;;;;;;;17.65;4.25;;;;;;;;;;4982867;28;20424;-64
2023/07/04 04:25:25;;;;;;;17.43;4.20;;;;;;;;;;4985448;28;20455;-64
2023/07/04 04:27:52;;;;;;;13.80;4.32;;;;;;;;;;4982850;28;20776;-64
2023/07/04 04:30:19;;;;;;;16.63;4.20;;;;;;;;;;4987138;28;20475;-64
2023/07/04 04:32:46;;;;;;;15.30;4.68;;;;;;;;;;4986116;28;20434;-64
2023/07/04 04:35:13;;;;;;;17.83;4.78;;;;;;;;;;4985678;28;20464;-63
2023/07/04 04:37:42;;;;;;;19.30;4.82;;;;;;;;;;4979071;28;20428;-64
2023/07/04 04:40:09;;;;;;;18.60;4.72;;;;;;;;;;4987443;28;20489;-64
2023/07/04 04:42:36;;;;;;;21.27;4.72;;;;;;;;;;4984062;28;20429;-64
2023/07/04 04:45:03;;;;;;;16.20;4.63;;;;;;;;;;4981237;28;20497;-64
2023/07/04 04:47:33;;;;;;;14.13;4.38;;;;;;;;;;4985790;28;20430;-63
2023/07/04 04:50:00;;;;;;;17.00;4.57;;;;;;;;;;4982119;28;20857;-63
2023/07/04 04:52:29;;;;;;;14.40;4.38;;;;;;;;;;4983883;28;20428;-62
2023/07/04 04:54:57;;;;;;;17.50;4.75;;;;;;;;;;4973034;28;20874;-65
2023/07/04 04:57:24;;;;;;;12.65;3.97;;;;;;;;;;4973388;28;20416;-63
2023/07/04 04:59:51;;;;;;;16.20;4.07;;;;;;;;;;4982777;28;20500;-64
2023/07/04 05:02:18;;;;;;;14.75;4.50;;;;;;;;;;4982597;28;20423;-60
2023/07/04 05:04:45;;;;;;;13.43;4.30;;;;;;;;;;4992115;28;20428;-63
2023/07/04 05:07:13;;;;;;;15.27;4.47;;;;;;;;;;4986219;28;20419;-62
2023/07/04 05:09:40;;;;;;;14.60;4.18;;;;;;;;;;4983274;28;20529;-64
2023/07/04 05:12:08;;;;;;;15.63;3.97;;;;;;;;;;4981127;28;20419;-63
2023/07/04 05:14:35;;;;;;;15.93;4.13;;;;;;;;;;4981881;28;20574;-64
2023/07/04 05:17:02;;;;;;;14.88;4.15;;;;;;;;;;4987248;28;20827;-64
2023/07/04 05:19:29;;;;;;;13.90;4.22;;;;;;;;;;4982530;28;20419;-65
2023/07/04 05:21:56;;;;;;;17.08;4.15;;;;;;;;;;4983759;28;20476;-64
2023/07/04 05:24:23;;;;;;;18.08;4.40;;;;;;;;;;4981377;28;20418;-63
2023/07/04 05:26:51;;;;;;;14.75;4.25;;;;;;;;;;4981498;28;20899;-63
2023/07/04 05:29:19;;;;;;;17.33;4.40;;;;;;;;;;4980485;28;20422;-63
2023/07/04 05:31:46;;;;;;;17.20;4.32;;;;;;;;;;4978742;28;20412;-63
2023/07/04 05:34:13;;;;;;;15.80;4.27;;;;;;;;;;4980831;28;20559;-62
2023/07/04 05:36:41;;;;;;;15.30;4.20;;;;;;;;;;4982641;28;20436;-64
2023/07/04 05:39:08;;;;;;;19.00;4.55;;;;;;;;;;4983329;28;20426;-64
2023/07/04 05:41:36;;;;;;;15.15;4.10;;;;;;;;;;4983157;28;20446;-64
2023/07/04 05:44:03;;;;;;;16.73;4.37;;;;;;;;;;4982364;28;21000;-63
2023/07/04 05:46:32;;;;;;;15.23;4.20;;;;;;;;;;4985568;28;20426;-64
2023/07/04 05:48:59;;;;;;;21.13;4.65;;;;;;;;;;4983681;28;20486;-63
2023/07/04 05:51:26;;;;;;;12.35;4.30;;;;;;;;;;4980344;28;20499;-65
2023/07/04 05:53:54;;;;;;;16.65;4.88;;;;;;;;;;4980991;28;20447;-63
2023/07/04 05:56:22;;;;;;;15.00;4.35;;;;;;;;;;4981014;28;20419;-63
2023/07/04 05:58:50;;;;;;;15.63;4.17;;;;;;;;;;4980937;28;20837;-63
2023/07/04 06:01:21;;;;;;;16.85;4.63;;;;;;;;;;4980794;28;20432;-64
2023/07/04 06:03:50;;;;;;;19.57;5.13;;;;;;;;;;4982941;28;20529;-63
2023/07/04 06:06:18;;;;;;;19.45;5.10;;;;;;;;;;4982282;28;20439;-63
2023/07/04 06:08:46;;;;;;;18.70;4.70;;;;;;;;;;4982791;28;20418;-63
2023/07/04 06:11:13;;;;;;;13.23;3.95;;;;;;;;;;4981479;28;20469;-65
2023/07/04 06:13:41;;;;;;;18.58;4.97;;;;;;;;;;4983722;28;20430;-63
2023/07/04 06:16:08;;;;;;;17.77;5.72;;;;;;;;;;4995221;28;20442;-66
2023/07/04 06:18:35;;;;;;;16.37;5.23;;;;;;;;;;4998946;28;20454;-64
2023/07/04 06:21:07;;;;;;;18.00;6.97;;;;;;;;;;4992281;28;20432;-66
2023/07/04 06:23:34;;;;;;;15.85;5.50;;;;;;;;;;4992294;28;20416;-67
2023/07/04 06:26:01;;;;;;;16.58;5.50;;;;;;;;;;4993976;28;20426;-65
2023/07/04 06:28:28;;;;;;;17.05;5.10;;;;;;;;;;4992539;28;20430;-67
2023/07/04 06:30:55;;;;;;;15.73;5.35;;;;;;;;;;4985891;28;20420;-66
2023/07/04 06:33:22;;;;;;;15.87;5.27;;;;;;;;;;4987137;28;20884;-66
2023/07/04 06:35:49;;;;;;;17.20;5.70;;;;;;;;;;4990885;28;20472;-65
2023/07/04 06:38:18;;;;;;;12.68;4.85;;;;;;;;;;4985373;28;20418;-66
2023/07/04 06:40:55;;;;;;;15.63;5.00;;;;;;;;;;4985690;28;20430;-66
2023/07/04 06:43:22;;;;;;;16.50;5.30;;;;;;;;;;4982664;28;20415;-65
2023/07/04 06:45:49;;;;;;;17.08;5.13;;;;;;;;;;4984643;28;20809;-66
2023/07/04 06:48:16;;;;;;;17.80;4.88;;;;;;;;;;4984623;28;20433;-64
2023/07/04 06:50:45;;;;;;;13.45;4.85;;;;;;;;;;4989256;28;20787;-66
2023/07/04 06:53:12;;;;;;;15.88;5.80;;;;;;;;;;4988549;28;20424;-66
2023/07/04 06:55:40;;;;;;;14.57;4.93;;;;;;;;;;4985395;28;20770;-64
2023/07/04 06:58:07;;;;;;;15.50;4.43;;;;;;;;;;4985916;28;20422;-66
2023/07/04 07:00:34;;;;;;;17.23;4.80;;;;;;;;;;4985433;28;20434;-65
2023/07/04 07:03:01;;;;;;;12.88;4.63;;;;;;;;;;4986116;28;20460;-66
2023/07/04 07:05:28;;;;;;;15.10;4.87;;;;;;;;;;4983958;28;20485;-64
2023/07/04 07:07:55;;;;;;;15.57;4.53;;;;;;;;;;4983665;28;20420;-66
2023/07/04 07:10:22;;;;;;;16.65;4.72;;;;;;;;;;4984617;28;20465;-64
2023/07/04 07:12:50;;;;;;;13.90;4.40;;;;;;;;;;4983840;28;20424;-67
2023/07/04 07:15:17;;;;;;;13.65;4.78;;;;;;;;;;4983765;28;20422;-66
2023/07/04 07:17:44;;;;;;;14.25;4.68;;;;;;;;;;4984488;28;20485;-66
2023/07/04 07:20:12;;;;;;;15.70;4.32;;;;;;;;;;4986744;28;20420;-66
2023/07/04 07:22:39;;;;;;;14.00;4.18;;;;;;;;;;4985127;28;20920;-66
2023/07/04 07:25:06;;;;;;;13.90;4.15;;;;;;;;;;4989328;28;20477;-66
2023/07/04 07:27:33;;;;;;;15.13;4.68;;;;;;;;;;4985216;28;20424;-66
2023/07/04 07:30:02;;;;;;;16.70;5.00;;;;;;;;;;4987299;28;20422;-67
2023/07/04 07:32:29;;;;;;;16.67;5.00;;;;;;;;;;4988019;28;20892;-66
2023/07/04 07:34:56;;;;;;;13.82;4.65;;;;;;;;;;4986883;28;20420;-66
2023/07/04 07:37:23;;;;;;;17.53;4.80;;;;;;;;;;4985851;28;20428;-65
2023/07/04 07:39:51;;;;;;;13.20;4.28;;;;;;;;;;4987931;28;20481;-66
2023/07/04 07:42:18;;;;;;;12.47;3.83;;;;;;;;;;4986455;28;20434;-64
2023/07/04 07:44:45;;;;;;;14.40;4.53;;;;;;;;;;4985524;28;20416;-66
2023/07/04 07:47:13;;;;;;;12.85;4.30;;;;;;;;;;4990583;28;20415;-66
2023/07/04 07:49:40;;;;;;;11.18;4.10;;;;;;;;;;4988962;28;20486;-66
2023/07/04 07:52:07;;;;;;;9.23;3.80;;;;;;;;;;4988303;28;20484;-65
2023/07/04 07:54:36;;;;;;;11.55;3.72;;;;;;;;;;4986816;28;20576;-66
2023/07/04 07:57:03;;;;;;;13.60;3.97;;;;;;;;;;4985154;28;20503;-66
2023/07/04 07:59:30;;;;;;;10.80;3.70;;;;;;;;;;4985783;28;20958;-66
2023/07/04 08:01:57;;;;;;;10.02;3.70;;;;;;;;;;4987601;28;20509;-66
2023/07/04 08:04:26;;;;;;;14.48;4.10;;;;;;;;;;4986307;28;20495;-66
2023/07/04 08:06:53;;;;;;;11.02;3.97;;;;;;;;;;4985567;28;20456;-66
2023/07/04 08:09:20;;;;;;;10.57;3.90;;;;;;;;;;4985163;28;20416;-66
2023/07/04 08:11:48;;;;;;;13.63;3.53;;;;;;;;;;4986065;28;20427;-66
2023/07/04 08:14:15;;;;;;;11.20;3.90;;;;;;;;;;4988074;28;20418;-67
2023/07/04 08:16:43;;;;;;;11.27;3.65;;;;;;;;;;4990342;28;20422;-65
2023/07/04 08:19:10;;;;;;;11.63;3.53;;;;;;;;;;4988966;28;20426;-66
2023/07/04 08:21:39;;;;;;;11.25;3.67;;;;;;;;;;4985972;28;20523;-66
2023/07/04 08:24:10;;;;;;;7.70;3.20;;;;;;;;;;4985807;28;20416;-66
2023/07/04 08:26:38;;;;;;;9.65;2.97;;;;;;;;;;4986681;28;20427;-66
2023/07/04 08:29:06;;;;;;;11.98;3.58;;;;;;;;;;4984120;28;20511;-66
2023/07/04 08:31:34;;;;;;;12.13;3.10;;;;;;;;;;4982444;28;20416;-65
2023/07/04 08:34:01;;;;;;;10.73;3.58;;;;;;;;;;4982759;28;20432;-65
2023/07/04 08:36:28;;;;;;;7.78;2.88;;;;;;;;;;4984810;28;20411;-65
2023/07/04 08:38:57;;;;;;;9.75;2.95;;;;;;;;;;4983470;28;20447;-65
2023/07/04 08:41:29;;;;;;;7.28;3.03;;;;;;;;;;4981680;28;20845;-64
2023/07/04 08:43:58;;;;;;;11.20;3.80;;;;;;;;;;4983955;28;20423;-65
2023/07/04 08:46:25;;;;;;;9.02;3.10;;;;;;;;;;4985467;28;20418;-64
2023/07/04 08:48:52;;;;;;;9.60;3.00;;;;;;;;;;4985315;28;20416;-64
2023/07/04 08:51:21;;;;;;;7.27;3.03;;;;;;;;;;4985042;28;20474;-64
2023/07/04 08:53:53;;;;;;;9.70;3.10;;;;;;;;;;4984847;28;20853;-64
2023/07/04 08:56:27;;;;;;;10.83;3.10;;;;;;;;;;4984178;28;20449;-64
2023/07/04 08:58:58;;;;;;;7.95;2.88;;;;;;;;;;4983689;28;20480;-65
2023/07/04 09:01:29;;;;;;;9.52;3.13;;;;;;;;;;4984156;28;20426;-64
2023/07/04 09:03:58;;;;;;;8.10;2.63;;;;;;;;;;4983896;28;20414;-65
2023/07/04 09:06:29;;;;;;;9.50;3.00;;;;;;;;;;4973467;28;20408;-65
2023/07/04 09:09:02;;;;;;;7.13;2.60;;;;;;;;;;4973641;28;20424;-64
2023/07/04 09:11:31;;;;;;;10.60;3.25;;;;;;;;;;4982517;28;20659;-65
2023/07/04 09:13:59;;;;;;;8.60;2.85;;;;;;;;;;4982362;28;20877;-65
2023/07/04 09:16:29;;;;;;;9.75;2.88;;;;;;;;;;4983145;28;20426;-64
2023/07/04 09:18:57;;;;;;;9.52;2.80;;;;;;;;;;4984221;28;20426;-64
2023/07/04 09:21:25;;;;;;;7.30;2.60;;;;;;;;;;4981624;28;20444;-64
2023/07/04 09:23:53;;;;;;;9.85;3.00;;;;;;;;;;4981302;28;20416;-64
2023/07/04 09:26:21;;;;;;;6.13;2.53;;;;;;;;;;4975453;28;20746;-66
2023/07/04 09:28:51;;;;;;;8.40;2.85;;;;;;;;;;4979229;28;20423;-65
2023/07/04 09:31:19;;;;;;;6.72;2.63;;;;;;;;;;4977602;28;20416;-66
2023/07/04 09:33:47;;;;;;;8.90;2.88;;;;;;;;;;4972783;28;20885;-64
2023/07/04 09:36:17;;;;;;;6.70;2.35;;;;;;;;;;4980315;28;20424;-64
2023/07/04 09:38:54;;;;;;;10.30;2.63;;;;;;;;;;4982308;28;20481;-64
2023/07/04 09:41:21;;;;;;;6.93;2.38;;;;;;;;;;4984404;28;20439;-66
2023/07/04 09:43:50;;;;;;;7.22;2.50;;;;;;;;;;4987554;28;20470;-65
2023/07/04 09:46:22;;;;;;;10.47;2.70;;;;;;;;;;4986779;28;20422;-67
2023/07/04 09:48:49;;;;;;;8.23;2.78;;;;;;;;;;4987747;28;20817;-66
2023/07/04 09:51:17;;;;;;;6.03;2.30;;;;;;;;;;4977206;28;20412;-66
2023/07/04 09:53:45;;;;;;;8.02;2.58;;;;;;;;;;4979643;28;20416;-65
2023/07/04 09:56:12;;;;;;;6.78;2.35;;;;;;;;;;4985098;28;20431;-66
2023/07/04 09:58:39;;;;;;;7.75;2.72;;;;;;;;;;4984277;28;20443;-65
2023/07/04 10:01:13;;;;;;;7.88;2.58;;;;;;;;;;4983093;28;20455;-65
2023/07/04 10:03:41;;;;;;;6.13;2.17;;;;;;;;;;4991703;28;20479;-65
2023/07/04 10:06:08;;;;;;;7.78;2.60;;;;;;;;;;4991940;28;20973;-65
2023/07/04 10:08:49;;;;;;;7.25;2.30;;;;;;;;;;4994332;28;20481;-65
2023/07/04 10:11:24;;;;;;;7.50;2.20;;;;;;;;;;4985212;28;20508;-65
2023/07/04 10:13:59;;;;;;;9.32;2.47;;;;;;;;;;4980009;28;20467;-64
2023/07/04 10:16:28;;;;;;;10.98;2.55;;;;;;;;;;4983963;28;20423;-63
2023/07/04 10:19:03;;;;;;;5.80;2.30;;;;;;;;;;4982649;28;20428;-63
2023/07/04 10:21:29;;;;;;;11.98;2.78;;;;;;;;;;4980079;28;20427;-65
2023/07/04 10:23:59;;;;;;;9.77;2.80;;;;;;;;;;4982295;28;20883;-61
2023/07/04 10:26:26;;;;;;;5.88;2.42;;;;;;;;;;4982914;28;20424;-61
2023/07/04 10:28:53;;;;;;;7.78;2.70;;;;;;;;;;4971681;28;20420;-61
2023/07/04 10:31:22;;;;;;;8.38;3.10;;;;;;;;;;4971659;28;20420;-63
2023/07/04 10:33:52;;;;;;;8.55;2.53;;;;;;;;;;4971488;28;20503;-63
2023/07/04 10:36:28;;;;;;;6.25;2.40;;;;;;;;;;4971489;28;20416;-64
2023/07/04 10:38:57;;;;;;;8.23;2.58;;;;;;;;;;4980682;28;20416;-64
2023/07/04 10:41:25;;;;;;;8.32;2.60;;;;;;;;;;4984966;28;20420;-66
2023/07/04 10:43:54;;;;;;;8.40;2.58;;;;;;;;;;4987288;28;20707;-65
2023/07/04 10:46:23;;;;;;;7.75;2.65;;;;;;;;;;4993274;28;20891;-65
2023/07/04 10:48:54;;;;;;;8.95;2.60;;;;;;;;;;4987176;28;20426;-65
2023/07/04 10:51:23;;;;;;;7.03;2.20;;;;;;;;;;4985390;28;20427;-66
2023/07/04 10:53:50;;;;;;;9.43;2.58;;;;;;;;;;4989365;28;20440;-65
2023/07/04 10:56:19;;;;;;;7.53;2.40;;;;;;;;;;4990983;28;20566;-65
2023/07/04 10:58:48;;;;;;;8.20;2.40;;;;;;;;;;4993830;28;20426;-64
2023/07/04 11:01:19;;;;;;;7.22;2.15;;;;;;;;;;4993073;28;20424;-66
2023/07/04 11:03:48;;;;;;;6.10;2.30;;;;;;;;;;4989835;28;20873;-65
2023/07/04 11:06:18;;;;;;;7.45;2.30;;;;;;;;;;4991365;28;20474;-66
2023/07/04 11:08:45;;;;;;;6.63;2.33;;;;;;;;;;4980760;28;20838;-69
2023/07/04 11:11:14;;;;;;;6.75;2.15;;;;;;;;;;4976643;28;20427;-66
2023/07/04 11:13:46;;;;;;;7.63;2.20;;;;;;;;;;4988514;28;20437;-66
2023/07/04 11:16:13;;;;;;;9.80;2.70;;;;;;;;;;4987101;28;20434;-66
2023/07/04 11:18:41;;;;;;;4.90;2.10;;;;;;;;;;4984169;28;20423;-65
2023/07/04 11:21:10;;;;;;;6.53;2.13;;;;;;;;;;4988102;28;20797;-65
2023/07/04 11:23:47;;;;;;;6.15;2.10;;;;;;;;;;4986099;28;20522;-66
2023/07/04 11:26:14;;;;;;;7.85;1.85;;;;;;;;;;4985767;28;20425;-64
2023/07/04 11:28:46;;;;;;;6.70;2.03;;;;;;;;;;4988222;28;20966;-66
2023/07/04 11:31:18;;;;;;;6.85;2.30;;;;;;;;;;4985511;28;20993;-67
2023/07/04 11:34:00;;;;;;;8.88;2.10;;;;;;;;;;4978537;28;20819;-67
2023/07/04 11:36:30;;;;;;;6.70;2.20;;;;;;;;;;4979960;28;20421;-66
2023/07/04 11:39:00;;;;;;;4.93;2.05;;;;;;;;;;4987710;28;20431;-66
2023/07/04 11:41:28;;;;;;;6.00;2.00;;;;;;;;;;4981597;28;20431;-68
2023/07/04 11:43:55;;;;;;;6.78;2.17;;;;;;;;;;4986584;28;20486;-65
2023/07/04 11:46:23;;;;;;;5.55;1.90;;;;;;;;;;4982260;28;20418;-66
2023/07/04 11:48:52;;;;;;;5.00;1.80;;;;;;;;;;4983944;28;20422;-66
2023/07/04 11:51:21;;;;;;;6.65;2.13;;;;;;;;;;4983099;28;20426;-67
2023/07/04 11:53:51;;;;;;;5.57;2.05;;;;;;;;;;4989137;28;20473;-67
2023/07/04 11:56:22;;;;;;;6.65;2.13;;;;;;;;;;4985818;28;20422;-62
2023/07/04 11:59:09;;;;;;;6.28;2.50;;;;;;;;;;4978447;28;20428;-64
2023/07/04 12:01:51;;;;;;;5.95;2.30;;;;;;;;;;4994029;28;20787;-68
2023/07/04 12:04:22;;;;;;;6.07;2.47;;;;;;;;;;4977923;28;20911;-68
2023/07/04 12:06:57;;;;;;;5.43;2.53;;;;;;;;;;4983603;28;20424;-70
2023/07/04 12:09:28;;;;;;;5.57;2.60;;;;;;;;;;4992108;28;20418;-70
2023/07/04 12:11:56;;;;;;;7.50;2.67;;;;;;;;;;4986413;28;20447;-67
2023/07/04 12:14:23;;;;;;;8.38;2.90;;;;;;;;;;4980674;28;20447;-67
2023/07/04 12:16:50;;;;;;;6.10;2.50;;;;;;;;;;4987734;28;20512;-66
2023/07/04 12:19:18;;;;;;;7.35;2.95;;;;;;;;;;4978999;28;20923;-66
2023/07/04 12:21:47;;;;;;;6.43;3.00;;;;;;;;;;4981767;28;20467;-66
2023/07/04 12:24:21;;;;;;;7.22;3.10;;;;;;;;;;4981817;28;20427;-67
2023/07/04 12:26:53;;;;;;;6.57;2.83;;;;;;;;;;4983602;28;20437;-66
2023/07/04 12:29:20;;;;;;;6.20;2.93;;;;;;;;;;4979782;28;20549;-66
2023/07/04 12:31:47;;;;;;;6.88;3.13;;;;;;;;;;4981018;28;20424;-67
2023/07/04 12:34:14;;;;;;;6.88;3.00;;;;;;;;;;4977821;28;20506;-67
2023/07/04 12:36:44;;;;;;;7.38;3.08;;;;;;;;;;4986842;28;20525;-69
2023/07/04 12:39:16;;;;;;;5.93;3.23;;;;;;;;;;4985268;28;20517;-68
2023/07/04 12:41:43;;;;;;;7.60;3.28;;;;;;;;;;4985874;28;20515;-69
2023/07/04 12:44:11;;;;;;;6.53;3.17;;;;;;;;;;4986980;28;20422;-68
2023/07/04 12:46:42;;;;;;;7.90;3.40;;;;;;;;;;4984971;28;20440;-68
2023/07/04 12:49:10;;;;;;;7.97;3.25;;;;;;;;;;4985169;28;20891;-68
2023/07/04 12:51:38;;;;;;;7.63;3.00;;;;;;;;;;4978481;28;20466;-68
2023/07/04 12:54:08;;;;;;;7.75;3.50;;;;;;;;;;4982258;28;20575;-68
2023/07/04 12:56:44;;;;;;;7.28;3.58;;;;;;;;;;4984264;28;20452;-68
2023/07/04 12:59:26;;;;;;;10.35;3.47;;;;;;;;;;4978543;28;20916;-67
2023/07/04 13:01:53;;;;;;;7.63;3.40;;;;;;;;;;4982203;28;20800;-68
2023/07/04 13:04:21;;;;;;;7.13;3.58;;;;;;;;;;4985905;28;20418;-67
2023/07/04 13:06:49;;;;;;;8.00;3.90;;;;;;;;;;4985177;28;20420;-70
2023/07/04 13:09:16;;;;;;;8.23;3.40;;;;;;;;;;4981137;28;20427;-66
2023/07/04 13:11:46;;;;;;;8.57;3.28;;;;;;;;;;4983253;28;20503;-66
2023/07/04 13:14:13;;;;;;;7.28;3.35;;;;;;;;;;4980730;28;20414;-67
2023/07/04 13:16:41;;;;;;;8.33;3.40;;;;;;;;;;4983717;28;20518;-66
2023/07/04 13:19:16;;;;;;;9.30;3.90;;;;;;;;;;4987897;28;20422;-66
2023/07/04 13:21:44;;;;;;;10.50;3.97;;;;;;;;;;4979898;28;20451;-66
2023/07/04 13:24:12;;;;;;;7.85;3.35;;;;;;;;;;4983600;28;20435;-66
2023/07/04 13:26:40;;;;;;;8.40;3.40;;;;;;;;;;4982321;28;20437;-67
2023/07/04 13:29:15;;;;;;;8.05;3.40;;;;;;;;;;4984187;28;20851;-67
2023/07/04 13:31:43;;;;;;;9.48;3.70;;;;;;;;;;4975934;28;20499;-66
2023/07/04 13:34:14;;;;;;;8.27;3.75;;;;;;;;;;4981391;28;20430;-67
2023/07/04 13:36:43;;;;;;;9.02;3.90;;;;;;;;;;4978841;28;20430;-67
2023/07/04 13:39:10;;;;;;;9.77;3.88;;;;;;;;;;4984299;28;20951;-67
2023/07/04 13:41:37;;;;;;;6.75;3.70;;;;;;;;;;4986738;28;20461;-68
2023/07/04 13:44:05;;;;;;;9.00;3.85;;;;;;;;;;4988198;28;20439;-68
2023/07/04 13:46:34;;;;;;;7.82;4.05;;;;;;;;;;4979277;28;21018;-66
2023/07/04 13:49:01;;;;;;;9.43;4.50;;;;;;;;;;4981055;28;20843;-66
2023/07/04 13:51:28;;;;;;;10.20;4.38;;;;;;;;;;4980931;28;20432;-66
2023/07/04 13:53:55;;;;;;;9.05;4.40;;;;;;;;;;4991198;28;21086;-66
2023/07/04 13:56:22;;;;;;;10.32;4.63;;;;;;;;;;4995181;28;20418;-67
2023/07/04 13:58:49;;;;;;;10.00;4.55;;;;;;;;;;4989011;28;20422;-66
2023/07/04 14:01:17;;;;;;;10.37;4.90;;;;;;;;;;4978751;28;20427;-67
2023/07/04 14:03:45;;;;;;;8.65;4.40;;;;;;;;;;4986177;28;20934;-70
2023/07/04 14:06:12;;;;;;;7.80;4.40;;;;;;;;;;4987738;28;20915;-69
2023/07/04 14:08:42;;;;;;;8.30;4.40;;;;;;;;;;4988016;28;20430;-72
2023/07/04 14:11:10;;;;;;;8.02;4.82;;;;;;;;;;4976793;28;20432;-68
2023/07/04 14:13:38;;;;;;;8.27;4.95;;;;;;;;;;4985672;28;20424;-68
2023/07/04 14:16:06;;;;;;;10.05;5.18;;;;;;;;;;4983242;28;20430;-68
2023/07/04 14:18:34;;;;;;;9.35;5.18;;;;;;;;;;4979506;28;20431;-67
2023/07/04 14:21:06;;;;;;;8.95;5.07;;;;;;;;;;4985425;28;20426;-66
2023/07/04 14:23:34;;;;;;;10.23;5.35;;;;;;;;;;4980995;28;20433;-65
2023/07/04 14:26:01;;;;;;;9.13;5.20;;;;;;;;;;4983707;28;20457;-66
2023/07/04 14:28:28;;;;;;;8.90;5.30;;;;;;;;;;4983209;28;20426;-68
2023/07/04 14:30:56;;;;;;;8.27;5.20;;;;;;;;;;4983369;28;20456;-67
2023/07/04 14:33:23;;;;;;;8.88;5.55;;;;;;;;;;4985525;28;20419;-67
2023/07/04 14:35:50;;;;;;;8.85;5.43;;;;;;;;;;4980711;28;20520;-65
2023/07/04 14:38:23;;;;;;;8.45;5.68;;;;;;;;;;4977348;28;21381;-67
2023/07/04 14:40:50;;;;;;;9.03;5.57;;;;;;;;;;4978499;28;20534;-70
2023/07/04 14:43:20;;;;;;;8.80;5.63;;;;;;;;;;4981306;28;20455;-66